sensor_id;sensor_type;location;lat;lon;timestamp;P1;durP1;ratioP1;P2;durP2;ratioP2
81697;SDS011;71109;52.514;5.708;2023-10-09T00:01:25;68.30;;;23.40;;
81697;SDS011;71109;52.514;5.708;2023-10-09T00:03:51;60.50;;;20.83;;
81697;SDS011;71109;52.514;5.708;2023-10-09T00:06:18;57.45;;;21.63;;
81697;SDS011;71109;52.514;5.708;2023-10-09T00:08:56;66.07;;;23.13;;
81697;SDS011;71109;52.514;5.708;2023-10-09T00:11:23;71.38;;;22.95;;
81697;SDS011;71109;52.514;5.708;2023-10-09T00:13:54;72.65;;;23.65;;
81697;SDS011;71109;52.514;5.708;2023-10-09T00:16:23;63.08;;;23.05;;
81697;SDS011;71109;52.514;5.708;2023-10-09T00:19:01;61.63;;;21.63;;
81697;SDS011;71109;52.514;5.708;2023-10-09T00:21:41;59.80;;;22.30;;
81697;SDS011;71109;52.514;5.708;2023-10-09T00:24:07;69.80;;;22.17;;
81697;SDS011;71109;52.514;5.708;2023-10-09T00:26:39;63.10;;;22.75;;
81697;SDS011;71109;52.514;5.708;2023-10-09T00:29:09;60.22;;;22.67;;
81697;SDS011;71109;52.514;5.708;2023-10-09T00:31:40;64.30;;;23.15;;
81697;SDS011;71109;52.514;5.708;2023-10-09T00:34:32;66.22;;;22.80;;
81697;SDS011;71109;52.514;5.708;2023-10-09T00:37:05;68.90;;;22.98;;
81697;SDS011;71109;52.514;5.708;2023-10-09T00:39:35;67.20;;;22.98;;
81697;SDS011;71109;52.514;5.708;2023-10-09T00:42:01;58.35;;;22.08;;
81697;SDS011;71109;52.514;5.708;2023-10-09T00:44:28;66.35;;;22.77;;
81697;SDS011;71109;52.514;5.708;2023-10-09T00:47:06;65.78;;;23.08;;
81697;SDS011;71109;52.514;5.708;2023-10-09T00:49:54;66.82;;;24.08;;
81697;SDS011;71109;52.514;5.708;2023-10-09T00:52:29;68.13;;;24.65;;
81697;SDS011;71109;52.514;5.708;2023-10-09T00:55:19;69.72;;;23.90;;
81697;SDS011;71109;52.514;5.708;2023-10-09T00:58:04;64.97;;;23.13;;
81697;SDS011;71109;52.514;5.708;2023-10-09T01:00:37;68.32;;;23.42;;
81697;SDS011;71109;52.514;5.708;2023-10-09T01:03:08;62.85;;;22.75;;
81697;SDS011;71109;52.514;5.708;2023-10-09T01:05:46;73.40;;;25.73;;
81697;SDS011;71109;52.514;5.708;2023-10-09T01:08:28;74.82;;;24.95;;
81697;SDS011;71109;52.514;5.708;2023-10-09T01:10:54;69.43;;;24.92;;
81697;SDS011;71109;52.514;5.708;2023-10-09T01:13:43;76.78;;;25.98;;
81697;SDS011;71109;52.514;5.708;2023-10-09T01:16:19;75.43;;;25.83;;
81697;SDS011;71109;52.514;5.708;2023-10-09T01:18:47;67.35;;;24.35;;
81697;SDS011;71109;52.514;5.708;2023-10-09T01:21:20;70.47;;;25.42;;
81697;SDS011;71109;52.514;5.708;2023-10-09T01:23:50;77.80;;;27.85;;
81697;SDS011;71109;52.514;5.708;2023-10-09T01:26:36;73.65;;;25.73;;
81697;SDS011;71109;52.514;5.708;2023-10-09T01:29:09;75.82;;;25.48;;
81697;SDS011;71109;52.514;5.708;2023-10-09T01:31:44;70.50;;;26.27;;
81697;SDS011;71109;52.514;5.708;2023-10-09T01:34:19;92.32;;;27.17;;
81697;SDS011;71109;52.514;5.708;2023-10-09T01:36:49;75.55;;;27.40;;
81697;SDS011;71109;52.514;5.708;2023-10-09T01:39:24;78.22;;;26.95;;
81697;SDS011;71109;52.514;5.708;2023-10-09T01:41:55;76.07;;;27.27;;
81697;SDS011;71109;52.514;5.708;2023-10-09T01:44:25;74.82;;;28.08;;
81697;SDS011;71109;52.514;5.708;2023-10-09T01:46:51;75.18;;;26.92;;
81697;SDS011;71109;52.514;5.708;2023-10-09T01:49:20;81.28;;;27.33;;
81697;SDS011;71109;52.514;5.708;2023-10-09T01:51:54;75.95;;;26.50;;
81697;SDS011;71109;52.514;5.708;2023-10-09T01:54:20;89.32;;;32.05;;
81697;SDS011;71109;52.514;5.708;2023-10-09T01:57:01;82.10;;;27.75;;
81697;SDS011;71109;52.514;5.708;2023-10-09T01:59:37;79.90;;;27.95;;
81697;SDS011;71109;52.514;5.708;2023-10-09T02:02:04;86.55;;;28.63;;
81697;SDS011;71109;52.514;5.708;2023-10-09T02:04:38;79.15;;;27.95;;
81697;SDS011;71109;52.514;5.708;2023-10-09T02:07:05;78.45;;;28.83;;
81697;SDS011;71109;52.514;5.708;2023-10-09T02:09:33;75.70;;;28.85;;
81697;SDS011;71109;52.514;5.708;2023-10-09T02:11:59;86.28;;;31.85;;
81697;SDS011;71109;52.514;5.708;2023-10-09T02:14:25;77.00;;;28.05;;
81697;SDS011;71109;52.514;5.708;2023-10-09T02:16:51;81.80;;;27.92;;
81697;SDS011;71109;52.514;5.708;2023-10-09T02:19:52;83.90;;;28.38;;
81697;SDS011;71109;52.514;5.708;2023-10-09T02:22:18;74.87;;;28.77;;
81697;SDS011;71109;52.514;5.708;2023-10-09T02:24:44;78.50;;;29.35;;
81697;SDS011;71109;52.514;5.708;2023-10-09T02:27:22;67.15;;;25.85;;
81697;SDS011;71109;52.514;5.708;2023-10-09T02:30:20;67.55;;;26.23;;
81697;SDS011;71109;52.514;5.708;2023-10-09T02:32:54;67.45;;;24.48;;
81697;SDS011;71109;52.514;5.708;2023-10-09T02:35:31;67.40;;;25.17;;
81697;SDS011;71109;52.514;5.708;2023-10-09T02:38:04;70.30;;;25.67;;
81697;SDS011;71109;52.514;5.708;2023-10-09T02:40:35;62.22;;;26.15;;
81697;SDS011;71109;52.514;5.708;2023-10-09T02:43:30;60.95;;;26.90;;
81697;SDS011;71109;52.514;5.708;2023-10-09T02:46:20;61.42;;;23.42;;
81697;SDS011;71109;52.514;5.708;2023-10-09T02:48:53;57.38;;;23.58;;
81697;SDS011;71109;52.514;5.708;2023-10-09T02:51:19;60.83;;;23.55;;
81697;SDS011;71109;52.514;5.708;2023-10-09T02:53:52;52.60;;;22.85;;
81697;SDS011;71109;52.514;5.708;2023-10-09T02:56:21;53.20;;;22.45;;
81697;SDS011;71109;52.514;5.708;2023-10-09T02:58:53;61.25;;;23.17;;
81697;SDS011;71109;52.514;5.708;2023-10-09T03:01:18;52.17;;;21.58;;
81697;SDS011;71109;52.514;5.708;2023-10-09T03:03:44;65.53;;;21.98;;
81697;SDS011;71109;52.514;5.708;2023-10-09T03:06:10;53.60;;;22.65;;
81697;SDS011;71109;52.514;5.708;2023-10-09T03:08:37;48.10;;;20.50;;
81697;SDS011;71109;52.514;5.708;2023-10-09T03:11:03;46.25;;;20.58;;
81697;SDS011;71109;52.514;5.708;2023-10-09T03:13:31;52.42;;;22.20;;
81697;SDS011;71109;52.514;5.708;2023-10-09T03:15:58;57.92;;;21.55;;
81697;SDS011;71109;52.514;5.708;2023-10-09T03:18:24;53.33;;;22.10;;
81697;SDS011;71109;52.514;5.708;2023-10-09T03:20:49;54.70;;;21.00;;
81697;SDS011;71109;52.514;5.708;2023-10-09T03:23:15;51.83;;;20.60;;
81697;SDS011;71109;52.514;5.708;2023-10-09T03:25:41;46.50;;;21.33;;
81697;SDS011;71109;52.514;5.708;2023-10-09T03:28:12;54.33;;;21.80;;
81697;SDS011;71109;52.514;5.708;2023-10-09T03:30:40;46.22;;;20.67;;
81697;SDS011;71109;52.514;5.708;2023-10-09T03:33:09;48.50;;;21.70;;
81697;SDS011;71109;52.514;5.708;2023-10-09T03:35:34;54.70;;;21.38;;
81697;SDS011;71109;52.514;5.708;2023-10-09T03:38:01;55.35;;;20.75;;
81697;SDS011;71109;52.514;5.708;2023-10-09T03:40:42;50.50;;;20.17;;
81697;SDS011;71109;52.514;5.708;2023-10-09T03:43:11;49.28;;;22.13;;
81697;SDS011;71109;52.514;5.708;2023-10-09T03:45:36;47.28;;;20.98;;
81697;SDS011;71109;52.514;5.708;2023-10-09T03:48:04;54.70;;;21.23;;
81697;SDS011;71109;52.514;5.708;2023-10-09T03:50:50;59.60;;;22.02;;
81697;SDS011;71109;52.514;5.708;2023-10-09T03:53:31;57.38;;;21.85;;
81697;SDS011;71109;52.514;5.708;2023-10-09T03:55:56;45.25;;;20.85;;
81697;SDS011;71109;52.514;5.708;2023-10-09T03:58:24;49.20;;;21.88;;
81697;SDS011;71109;52.514;5.708;2023-10-09T04:00:55;50.05;;;21.77;;
81697;SDS011;71109;52.514;5.708;2023-10-09T04:03:21;46.85;;;19.50;;
81697;SDS011;71109;52.514;5.708;2023-10-09T04:05:46;54.23;;;21.97;;
81697;SDS011;71109;52.514;5.708;2023-10-09T04:08:11;51.25;;;21.80;;
81697;SDS011;71109;52.514;5.708;2023-10-09T04:10:46;45.03;;;21.83;;
81697;SDS011;71109;52.514;5.708;2023-10-09T04:13:18;48.38;;;18.63;;
81697;SDS011;71109;52.514;5.708;2023-10-09T04:15:48;53.45;;;19.73;;
81697;SDS011;71109;52.514;5.708;2023-10-09T04:18:15;47.17;;;20.08;;
81697;SDS011;71109;52.514;5.708;2023-10-09T04:20:41;44.80;;;20.10;;
81697;SDS011;71109;52.514;5.708;2023-10-09T04:23:09;48.85;;;20.75;;
81697;SDS011;71109;52.514;5.708;2023-10-09T04:25:41;48.13;;;19.02;;
81697;SDS011;71109;52.514;5.708;2023-10-09T04:28:15;43.72;;;17.65;;
81697;SDS011;71109;52.514;5.708;2023-10-09T04:30:40;38.43;;;18.53;;
81697;SDS011;71109;52.514;5.708;2023-10-09T04:33:10;46.47;;;18.95;;
81697;SDS011;71109;52.514;5.708;2023-10-09T04:35:45;51.88;;;18.35;;
81697;SDS011;71109;52.514;5.708;2023-10-09T04:38:31;51.78;;;19.08;;
81697;SDS011;71109;52.514;5.708;2023-10-09T04:40:59;51.92;;;20.98;;
81697;SDS011;71109;52.514;5.708;2023-10-09T04:43:24;42.78;;;18.25;;
81697;SDS011;71109;52.514;5.708;2023-10-09T04:45:51;44.05;;;17.52;;
81697;SDS011;71109;52.514;5.708;2023-10-09T04:48:31;48.28;;;17.63;;
81697;SDS011;71109;52.514;5.708;2023-10-09T04:51:03;47.50;;;19.83;;
81697;SDS011;71109;52.514;5.708;2023-10-09T04:53:57;53.70;;;18.63;;
81697;SDS011;71109;52.514;5.708;2023-10-09T04:56:38;49.22;;;18.30;;
81697;SDS011;71109;52.514;5.708;2023-10-09T04:59:20;42.55;;;17.80;;
81697;SDS011;71109;52.514;5.708;2023-10-09T05:01:50;40.72;;;16.52;;
81697;SDS011;71109;52.514;5.708;2023-10-09T05:04:25;41.95;;;19.50;;
81697;SDS011;71109;52.514;5.708;2023-10-09T05:07:00;39.60;;;16.58;;
81697;SDS011;71109;52.514;5.708;2023-10-09T05:09:33;46.13;;;16.50;;
81697;SDS011;71109;52.514;5.708;2023-10-09T05:12:18;42.47;;;17.55;;
81697;SDS011;71109;52.514;5.708;2023-10-09T05:14:43;39.13;;;17.53;;
81697;SDS011;71109;52.514;5.708;2023-10-09T05:17:28;44.67;;;18.42;;
81697;SDS011;71109;52.514;5.708;2023-10-09T05:19:54;44.67;;;16.53;;
81697;SDS011;71109;52.514;5.708;2023-10-09T05:22:42;43.72;;;17.33;;
81697;SDS011;71109;52.514;5.708;2023-10-09T05:25:21;44.55;;;17.60;;
81697;SDS011;71109;52.514;5.708;2023-10-09T05:28:04;41.10;;;16.70;;
81697;SDS011;71109;52.514;5.708;2023-10-09T05:30:49;40.97;;;16.52;;
81697;SDS011;71109;52.514;5.708;2023-10-09T05:33:27;33.88;;;15.93;;
81697;SDS011;71109;52.514;5.708;2023-10-09T05:35:58;53.47;;;17.05;;
81697;SDS011;71109;52.514;5.708;2023-10-09T05:38:51;32.47;;;14.32;;
81697;SDS011;71109;52.514;5.708;2023-10-09T05:41:44;37.97;;;15.23;;
81697;SDS011;71109;52.514;5.708;2023-10-09T05:44:18;34.80;;;13.07;;
81697;SDS011;71109;52.514;5.708;2023-10-09T05:47:02;30.58;;;12.63;;
81697;SDS011;71109;52.514;5.708;2023-10-09T05:49:46;30.38;;;11.15;;
81697;SDS011;71109;52.514;5.708;2023-10-09T05:52:12;28.80;;;10.98;;
81697;SDS011;71109;52.514;5.708;2023-10-09T05:55:07;31.90;;;11.32;;
81697;SDS011;71109;52.514;5.708;2023-10-09T05:57:55;37.03;;;13.02;;
81697;SDS011;71109;52.514;5.708;2023-10-09T06:00:21;28.40;;;11.68;;
81697;SDS011;71109;52.514;5.708;2023-10-09T06:03:08;37.13;;;12.75;;
81697;SDS011;71109;52.514;5.708;2023-10-09T06:05:46;27.20;;;10.32;;
81697;SDS011;71109;52.514;5.708;2023-10-09T06:08:21;35.58;;;12.07;;
81697;SDS011;71109;52.514;5.708;2023-10-09T06:11:06;27.67;;;12.10;;
81697;SDS011;71109;52.514;5.708;2023-10-09T06:13:51;29.13;;;11.98;;
81697;SDS011;71109;52.514;5.708;2023-10-09T06:16:28;28.05;;;10.63;;
81697;SDS011;71109;52.514;5.708;2023-10-09T06:19:13;32.08;;;11.43;;
81697;SDS011;71109;52.514;5.708;2023-10-09T06:21:59;33.03;;;12.63;;
81697;SDS011;71109;52.514;5.708;2023-10-09T06:24:36;28.92;;;11.48;;
81697;SDS011;71109;52.514;5.708;2023-10-09T06:27:18;27.80;;;11.10;;
81697;SDS011;71109;52.514;5.708;2023-10-09T06:29:56;28.00;;;11.02;;
81697;SDS011;71109;52.514;5.708;2023-10-09T06:32:41;25.73;;;8.90;;
81697;SDS011;71109;52.514;5.708;2023-10-09T06:35:23;28.25;;;10.07;;
81697;SDS011;71109;52.514;5.708;2023-10-09T06:37:55;25.70;;;9.52;;
81697;SDS011;71109;52.514;5.708;2023-10-09T06:40:31;24.35;;;9.82;;
81697;SDS011;71109;52.514;5.708;2023-10-09T06:43:20;25.90;;;10.57;;
81697;SDS011;71109;52.514;5.708;2023-10-09T06:45:46;30.27;;;10.93;;
81697;SDS011;71109;52.514;5.708;2023-10-09T06:48:19;24.80;;;10.57;;
81697;SDS011;71109;52.514;5.708;2023-10-09T06:51:09;29.70;;;9.57;;
81697;SDS011;71109;52.514;5.708;2023-10-09T06:53:54;29.73;;;10.13;;
81697;SDS011;71109;52.514;5.708;2023-10-09T06:56:20;37.30;;;10.65;;
81697;SDS011;71109;52.514;5.708;2023-10-09T06:59:09;23.85;;;9.10;;
81697;SDS011;71109;52.514;5.708;2023-10-09T07:01:49;27.80;;;10.02;;
81697;SDS011;71109;52.514;5.708;2023-10-09T07:04:33;25.75;;;11.35;;
81697;SDS011;71109;52.514;5.708;2023-10-09T07:07:02;28.88;;;10.23;;
81697;SDS011;71109;52.514;5.708;2023-10-09T07:09:32;19.17;;;8.73;;
81697;SDS011;71109;52.514;5.708;2023-10-09T07:12:07;30.77;;;11.10;;
81697;SDS011;71109;52.514;5.708;2023-10-09T07:14:36;28.77;;;9.75;;
81697;SDS011;71109;52.514;5.708;2023-10-09T07:19:45;36.58;;;9.55;;
81697;SDS011;71109;52.514;5.708;2023-10-09T07:22:11;29.97;;;9.73;;
81697;SDS011;71109;52.514;5.708;2023-10-09T07:24:50;24.33;;;9.05;;
81697;SDS011;71109;52.514;5.708;2023-10-09T07:27:22;24.23;;;9.57;;
81697;SDS011;71109;52.514;5.708;2023-10-09T07:30:07;31.38;;;9.32;;
81697;SDS011;71109;52.514;5.708;2023-10-09T07:32:53;22.95;;;8.65;;
81697;SDS011;71109;52.514;5.708;2023-10-09T07:35:22;22.70;;;8.60;;
81697;SDS011;71109;52.514;5.708;2023-10-09T07:38:12;24.38;;;9.52;;
81697;SDS011;71109;52.514;5.708;2023-10-09T07:40:48;31.10;;;9.10;;
81697;SDS011;71109;52.514;5.708;2023-10-09T07:43:21;23.70;;;10.15;;
81697;SDS011;71109;52.514;5.708;2023-10-09T07:46:11;26.60;;;8.85;;
81697;SDS011;71109;52.514;5.708;2023-10-09T07:48:57;20.00;;;9.20;;
81697;SDS011;71109;52.514;5.708;2023-10-09T07:51:35;28.38;;;9.45;;
81697;SDS011;71109;52.514;5.708;2023-10-09T07:54:01;23.83;;;9.15;;
81697;SDS011;71109;52.514;5.708;2023-10-09T07:56:39;31.55;;;10.15;;
81697;SDS011;71109;52.514;5.708;2023-10-09T07:59:14;17.48;;;7.95;;
81697;SDS011;71109;52.514;5.708;2023-10-09T08:01:49;22.55;;;9.07;;
81697;SDS011;71109;52.514;5.708;2023-10-09T08:04:20;21.55;;;8.50;;
81697;SDS011;71109;52.514;5.708;2023-10-09T08:07:02;18.45;;;8.25;;
81697;SDS011;71109;52.514;5.708;2023-10-09T08:09:32;27.00;;;8.45;;
81697;SDS011;71109;52.514;5.708;2023-10-09T08:12:11;26.67;;;9.52;;
81697;SDS011;71109;52.514;5.708;2023-10-09T08:15:03;20.05;;;7.72;;
81697;SDS011;71109;52.514;5.708;2023-10-09T08:18:04;26.05;;;8.32;;
81697;SDS011;71109;52.514;5.708;2023-10-09T08:20:35;34.30;;;9.10;;
81697;SDS011;71109;52.514;5.708;2023-10-09T08:23:36;26.60;;;8.18;;
81697;SDS011;71109;52.514;5.708;2023-10-09T08:26:22;26.98;;;8.05;;
81697;SDS011;71109;52.514;5.708;2023-10-09T08:29:12;26.27;;;8.80;;
81697;SDS011;71109;52.514;5.708;2023-10-09T08:31:45;24.90;;;8.70;;
81697;SDS011;71109;52.514;5.708;2023-10-09T08:34:10;30.10;;;9.30;;
81697;SDS011;71109;52.514;5.708;2023-10-09T08:36:48;22.30;;;8.63;;
81697;SDS011;71109;52.514;5.708;2023-10-09T08:39:17;23.60;;;8.60;;
81697;SDS011;71109;52.514;5.708;2023-10-09T08:41:53;27.67;;;9.13;;
81697;SDS011;71109;52.514;5.708;2023-10-09T08:44:23;30.05;;;8.65;;
81697;SDS011;71109;52.514;5.708;2023-10-09T08:46:50;29.10;;;8.05;;
81697;SDS011;71109;52.514;5.708;2023-10-09T08:49:16;19.63;;;8.18;;
81697;SDS011;71109;52.514;5.708;2023-10-09T08:51:41;21.38;;;7.18;;
81697;SDS011;71109;52.514;5.708;2023-10-09T08:54:07;23.40;;;7.65;;
81697;SDS011;71109;52.514;5.708;2023-10-09T08:56:36;31.38;;;8.43;;
81697;SDS011;71109;52.514;5.708;2023-10-09T08:59:04;26.77;;;7.07;;
81697;SDS011;71109;52.514;5.708;2023-10-09T09:01:30;32.80;;;7.40;;
81697;SDS011;71109;52.514;5.708;2023-10-09T09:03:57;14.70;;;6.80;;
81697;SDS011;71109;52.514;5.708;2023-10-09T09:06:25;18.98;;;5.93;;
81697;SDS011;71109;52.514;5.708;2023-10-09T09:08:51;20.15;;;6.03;;
81697;SDS011;71109;52.514;5.708;2023-10-09T09:11:19;27.40;;;7.53;;
81697;SDS011;71109;52.514;5.708;2023-10-09T09:13:59;22.48;;;7.82;;
81697;SDS011;71109;52.514;5.708;2023-10-09T09:16:40;18.10;;;6.30;;
81697;SDS011;71109;52.514;5.708;2023-10-09T09:19:09;22.42;;;6.97;;
81697;SDS011;71109;52.514;5.708;2023-10-09T09:21:38;25.20;;;6.10;;
81697;SDS011;71109;52.514;5.708;2023-10-09T09:24:09;28.23;;;7.68;;
81697;SDS011;71109;52.514;5.708;2023-10-09T09:26:54;14.68;;;5.85;;
81697;SDS011;71109;52.514;5.708;2023-10-09T09:29:24;17.98;;;6.72;;
81697;SDS011;71109;52.514;5.708;2023-10-09T09:32:40;18.67;;;7.15;;
81697;SDS011;71109;52.514;5.708;2023-10-09T09:35:11;30.42;;;6.53;;
81697;SDS011;71109;52.514;5.708;2023-10-09T09:37:51;16.83;;;6.07;;
81697;SDS011;71109;52.514;5.708;2023-10-09T09:40:18;21.27;;;6.53;;
81697;SDS011;71109;52.514;5.708;2023-10-09T09:42:59;28.65;;;7.18;;
81697;SDS011;71109;52.514;5.708;2023-10-09T09:45:35;27.40;;;8.27;;
81697;SDS011;71109;52.514;5.708;2023-10-09T09:48:02;18.63;;;5.80;;
81697;SDS011;71109;52.514;5.708;2023-10-09T09:50:31;21.65;;;6.72;;
81697;SDS011;71109;52.514;5.708;2023-10-09T09:52:57;18.40;;;6.20;;
81697;SDS011;71109;52.514;5.708;2023-10-09T09:55:31;23.38;;;7.57;;
81697;SDS011;71109;52.514;5.708;2023-10-09T09:57:59;28.90;;;7.03;;
81697;SDS011;71109;52.514;5.708;2023-10-09T10:00:28;21.73;;;6.43;;
81697;SDS011;71109;52.514;5.708;2023-10-09T10:03:01;29.67;;;7.53;;
81697;SDS011;71109;52.514;5.708;2023-10-09T10:05:34;20.95;;;5.95;;
81697;SDS011;71109;52.514;5.708;2023-10-09T10:08:00;26.10;;;7.93;;
81697;SDS011;71109;52.514;5.708;2023-10-09T10:10:33;24.55;;;6.50;;
81697;SDS011;71109;52.514;5.708;2023-10-09T10:12:59;24.90;;;7.22;;
81697;SDS011;71109;52.514;5.708;2023-10-09T10:18:21;29.00;;;6.38;;
81697;SDS011;71109;52.514;5.708;2023-10-09T10:23:39;20.70;;;6.72;;
81697;SDS011;71109;52.514;5.708;2023-10-09T10:26:20;26.77;;;6.63;;
81697;SDS011;71109;52.514;5.708;2023-10-09T10:32:03;29.15;;;7.75;;
81697;SDS011;71109;52.514;5.708;2023-10-09T10:37:20;24.55;;;7.72;;
81697;SDS011;71109;52.514;5.708;2023-10-09T10:40:34;20.40;;;6.30;;
81697;SDS011;71109;52.514;5.708;2023-10-09T10:43:18;23.20;;;7.22;;
81697;SDS011;71109;52.514;5.708;2023-10-09T10:46:12;25.25;;;7.20;;
81697;SDS011;71109;52.514;5.708;2023-10-09T10:48:49;25.40;;;6.28;;
81697;SDS011;71109;52.514;5.708;2023-10-09T10:51:34;26.13;;;6.97;;
81697;SDS011;71109;52.514;5.708;2023-10-09T10:54:03;26.98;;;6.47;;
81697;SDS011;71109;52.514;5.708;2023-10-09T10:56:47;24.27;;;6.00;;
81697;SDS011;71109;52.514;5.708;2023-10-09T10:59:13;17.73;;;6.57;;
81697;SDS011;71109;52.514;5.708;2023-10-09T11:01:39;25.98;;;7.15;;
81697;SDS011;71109;52.514;5.708;2023-10-09T11:04:23;21.63;;;6.70;;
81697;SDS011;71109;52.514;5.708;2023-10-09T11:06:55;26.38;;;7.00;;
81697;SDS011;71109;52.514;5.708;2023-10-09T11:09:43;24.52;;;7.45;;
81697;SDS011;71109;52.514;5.708;2023-10-09T11:15:07;26.40;;;7.03;;
81697;SDS011;71109;52.514;5.708;2023-10-09T11:18:03;21.10;;;6.97;;
81697;SDS011;71109;52.514;5.708;2023-10-09T11:20:35;23.33;;;6.50;;
81697;SDS011;71109;52.514;5.708;2023-10-09T11:23:03;18.65;;;5.45;;
81697;SDS011;71109;52.514;5.708;2023-10-09T11:25:45;21.38;;;6.85;;
81697;SDS011;71109;52.514;5.708;2023-10-09T11:28:20;18.20;;;6.50;;
81697;SDS011;71109;52.514;5.708;2023-10-09T11:31:11;21.55;;;6.78;;
81697;SDS011;71109;52.514;5.708;2023-10-09T11:33:43;19.95;;;7.53;;
81697;SDS011;71109;52.514;5.708;2023-10-09T11:36:13;19.80;;;7.28;;
81697;SDS011;71109;52.514;5.708;2023-10-09T11:38:40;21.38;;;6.65;;
81697;SDS011;71109;52.514;5.708;2023-10-09T11:41:13;20.10;;;7.20;;
81697;SDS011;71109;52.514;5.708;2023-10-09T11:43:50;22.20;;;8.00;;
81697;SDS011;71109;52.514;5.708;2023-10-09T11:46:18;30.98;;;8.00;;
81697;SDS011;71109;52.514;5.708;2023-10-09T11:49:06;20.55;;;7.22;;
81697;SDS011;71109;52.514;5.708;2023-10-09T11:51:44;23.88;;;7.93;;
81697;SDS011;71109;52.514;5.708;2023-10-09T11:54:33;22.55;;;8.55;;
81697;SDS011;71109;52.514;5.708;2023-10-09T11:56:58;19.65;;;6.57;;
81697;SDS011;71109;52.514;5.708;2023-10-09T11:59:29;17.50;;;7.03;;
81697;SDS011;71109;52.514;5.708;2023-10-09T12:02:07;18.42;;;7.20;;
81697;SDS011;71109;52.514;5.708;2023-10-09T12:04:37;24.05;;;7.82;;
81697;SDS011;71109;52.514;5.708;2023-10-09T12:07:07;26.17;;;7.38;;
81697;SDS011;71109;52.514;5.708;2023-10-09T12:09:34;20.05;;;7.22;;
81697;SDS011;71109;52.514;5.708;2023-10-09T12:12:08;26.85;;;8.10;;
81697;SDS011;71109;52.514;5.708;2023-10-09T12:14:34;24.30;;;7.30;;
81697;SDS011;71109;52.514;5.708;2023-10-09T12:17:03;17.30;;;8.02;;
81697;SDS011;71109;52.514;5.708;2023-10-09T12:19:34;25.02;;;6.97;;
81697;SDS011;71109;52.514;5.708;2023-10-09T12:22:01;16.40;;;7.05;;
81697;SDS011;71109;52.514;5.708;2023-10-09T12:24:29;18.75;;;7.10;;
81697;SDS011;71109;52.514;5.708;2023-10-09T12:26:55;16.98;;;7.22;;
81697;SDS011;71109;52.514;5.708;2023-10-09T12:29:20;23.73;;;7.15;;
81697;SDS011;71109;52.514;5.708;2023-10-09T12:31:46;18.90;;;7.20;;
81697;SDS011;71109;52.514;5.708;2023-10-09T12:34:12;22.00;;;6.68;;
81697;SDS011;71109;52.514;5.708;2023-10-09T12:36:45;34.03;;;7.85;;
81697;SDS011;71109;52.514;5.708;2023-10-09T12:39:10;17.10;;;6.53;;
81697;SDS011;71109;52.514;5.708;2023-10-09T12:41:46;18.95;;;6.85;;
81697;SDS011;71109;52.514;5.708;2023-10-09T12:44:11;21.25;;;7.28;;
81697;SDS011;71109;52.514;5.708;2023-10-09T12:46:40;23.70;;;8.32;;
81697;SDS011;71109;52.514;5.708;2023-10-09T12:49:06;22.10;;;8.57;;
81697;SDS011;71109;52.514;5.708;2023-10-09T12:51:31;21.63;;;6.30;;
81697;SDS011;71109;52.514;5.708;2023-10-09T12:53:57;20.83;;;7.30;;
81697;SDS011;71109;52.514;5.708;2023-10-09T12:56:23;20.73;;;6.28;;
81697;SDS011;71109;52.514;5.708;2023-10-09T12:58:57;20.90;;;6.47;;
81697;SDS011;71109;52.514;5.708;2023-10-09T13:01:23;21.73;;;6.40;;
81697;SDS011;71109;52.514;5.708;2023-10-09T13:03:49;24.27;;;7.00;;
81697;SDS011;71109;52.514;5.708;2023-10-09T13:06:14;20.20;;;5.90;;
81697;SDS011;71109;52.514;5.708;2023-10-09T13:08:40;12.13;;;5.88;;
81697;SDS011;71109;52.514;5.708;2023-10-09T13:11:08;24.52;;;6.05;;
81697;SDS011;71109;52.514;5.708;2023-10-09T13:13:41;20.10;;;7.93;;
81697;SDS011;71109;52.514;5.708;2023-10-09T13:16:17;21.23;;;6.80;;
81697;SDS011;71109;52.514;5.708;2023-10-09T13:18:48;28.35;;;6.47;;
81697;SDS011;71109;52.514;5.708;2023-10-09T13:21:21;23.25;;;6.70;;
81697;SDS011;71109;52.514;5.708;2023-10-09T13:23:57;17.95;;;6.80;;
81697;SDS011;71109;52.514;5.708;2023-10-09T13:26:22;22.42;;;7.45;;
81697;SDS011;71109;52.514;5.708;2023-10-09T13:29:01;20.00;;;6.43;;
81697;SDS011;71109;52.514;5.708;2023-10-09T13:31:27;17.13;;;6.03;;
81697;SDS011;71109;52.514;5.708;2023-10-09T13:33:57;19.65;;;6.35;;
81697;SDS011;71109;52.514;5.708;2023-10-09T13:36:24;20.92;;;7.57;;
81697;SDS011;71109;52.514;5.708;2023-10-09T13:38:59;24.80;;;6.97;;
81697;SDS011;71109;52.514;5.708;2023-10-09T13:41:48;30.98;;;7.75;;
81697;SDS011;71109;52.514;5.708;2023-10-09T13:46:52;26.13;;;7.75;;
81697;SDS011;71109;52.514;5.708;2023-10-09T13:49:26;24.67;;;6.05;;
81697;SDS011;71109;52.514;5.708;2023-10-09T13:51:58;16.33;;;5.15;;
81697;SDS011;71109;52.514;5.708;2023-10-09T13:54:26;17.13;;;5.50;;
81697;SDS011;71109;52.514;5.708;2023-10-09T13:56:58;21.40;;;5.53;;
81697;SDS011;71109;52.514;5.708;2023-10-09T13:59:29;20.50;;;5.75;;
81697;SDS011;71109;52.514;5.708;2023-10-09T14:01:55;24.02;;;6.65;;
81697;SDS011;71109;52.514;5.708;2023-10-09T14:04:21;18.38;;;5.80;;
81697;SDS011;71109;52.514;5.708;2023-10-09T14:06:50;28.08;;;8.25;;
81697;SDS011;71109;52.514;5.708;2023-10-09T14:09:22;17.88;;;6.18;;
81697;SDS011;71109;52.514;5.708;2023-10-09T14:14:32;23.88;;;7.53;;
81697;SDS011;71109;52.514;5.708;2023-10-09T14:17:08;23.27;;;5.57;;
81697;SDS011;71109;52.514;5.708;2023-10-09T14:19:38;19.92;;;7.07;;
81697;SDS011;71109;52.514;5.708;2023-10-09T14:22:04;24.30;;;5.78;;
81697;SDS011;71109;52.514;5.708;2023-10-09T14:24:30;18.27;;;6.75;;
81697;SDS011;71109;52.514;5.708;2023-10-09T14:26:59;25.85;;;6.35;;
81697;SDS011;71109;52.514;5.708;2023-10-09T14:29:24;20.25;;;6.40;;
81697;SDS011;71109;52.514;5.708;2023-10-09T14:31:51;19.88;;;5.57;;
81697;SDS011;71109;52.514;5.708;2023-10-09T14:34:25;20.73;;;5.85;;
81697;SDS011;71109;52.514;5.708;2023-10-09T14:36:57;21.25;;;5.93;;
81697;SDS011;71109;52.514;5.708;2023-10-09T14:39:25;18.23;;;6.30;;
81697;SDS011;71109;52.514;5.708;2023-10-09T14:41:51;23.48;;;6.28;;
81697;SDS011;71109;52.514;5.708;2023-10-09T14:44:19;20.45;;;6.45;;
81697;SDS011;71109;52.514;5.708;2023-10-09T14:46:45;27.98;;;7.30;;
81697;SDS011;71109;52.514;5.708;2023-10-09T14:49:10;27.58;;;7.65;;
81697;SDS011;71109;52.514;5.708;2023-10-09T14:51:39;27.83;;;7.25;;
81697;SDS011;71109;52.514;5.708;2023-10-09T14:54:04;27.67;;;6.13;;
81697;SDS011;71109;52.514;5.708;2023-10-09T14:56:32;21.88;;;7.88;;
81697;SDS011;71109;52.514;5.708;2023-10-09T14:59:01;19.95;;;5.70;;
81697;SDS011;71109;52.514;5.708;2023-10-09T15:01:27;21.77;;;6.43;;
81697;SDS011;71109;52.514;5.708;2023-10-09T15:03:57;22.25;;;7.35;;
81697;SDS011;71109;52.514;5.708;2023-10-09T15:06:24;18.05;;;5.68;;
81697;SDS011;71109;52.514;5.708;2023-10-09T15:08:52;15.20;;;6.25;;
81697;SDS011;71109;52.514;5.708;2023-10-09T15:11:21;22.95;;;8.38;;
81697;SDS011;71109;52.514;5.708;2023-10-09T15:13:48;24.30;;;6.40;;
81697;SDS011;71109;52.514;5.708;2023-10-09T15:16:13;20.77;;;7.95;;
81697;SDS011;71109;52.514;5.708;2023-10-09T15:18:38;19.92;;;6.10;;
81697;SDS011;71109;52.514;5.708;2023-10-09T15:21:04;20.23;;;6.85;;
81697;SDS011;71109;52.514;5.708;2023-10-09T15:23:31;14.93;;;6.90;;
81697;SDS011;71109;52.514;5.708;2023-10-09T15:25:56;20.20;;;6.03;;
81697;SDS011;71109;52.514;5.708;2023-10-09T15:28:22;22.17;;;6.37;;